Time;durP1;ratioP1;P1;durP2;ratioP2;P2;SDS_P1;SDS_P2;PMS_P1;PMS_P2;Temp;Humidity;BMP_temperature;BMP_pressure;BME280_temperature;BME280_humidity;BME280_pressure;Samples;Min_cycle;Max_cycle;Signal;HPM_P1;HPM_P2
2024/04/02 00:01:07;;;;;;;45.00;6.40;;;;;;;-147.86;100.00;-17609.17;105683;1258;73738;-46
2024/04/02 00:03:35;;;;;;;38.80;6.90;;;;;;;-147.86;100.00;-17609.17;105702;1254;64721;-46
2024/04/02 00:06:02;;;;;;;41.20;6.30;;;;;;;-147.86;100.00;-17609.17;105625;1254;72395;-50
2024/04/02 00:08:29;;;;;;;33.70;7.20;;;;;;;-147.86;100.00;-17609.17;105685;1260;60431;-47
2024/04/02 00:11:00;;;;;;;29.00;6.60;;;;;;;-147.86;100.00;-17609.17;105658;1258;60531;-47
2024/04/02 00:13:27;;;;;;;32.10;6.60;;;;;;;-147.86;100.00;-17609.17;105681;1259;73688;-48
2024/04/02 00:15:54;;;;;;;30.30;5.90;;;;;;;-147.86;100.00;-17609.17;105625;1259;65464;-46
2024/04/02 00:18:21;;;;;;;39.10;6.30;;;;;;;-147.86;100.00;-17609.17;105640;1260;72610;-48
2024/04/02 00:20:48;;;;;;;38.20;6.10;;;;;;;-147.86;100.00;-17609.17;105496;1267;61937;-45
2024/04/02 00:23:15;;;;;;;44.40;6.30;;;;;;;-147.86;100.00;-17609.17;105584;1256;60540;-48
2024/04/02 00:25:43;;;;;;;40.60;6.80;;;;;;;-147.86;100.00;-17609.17;105681;1258;73776;-50
2024/04/02 00:28:13;;;;;;;27.50;6.30;;;;;;;-147.86;100.00;-17609.17;105704;1258;64584;-47
2024/04/02 00:30:40;;;;;;;42.30;6.80;;;;;;;-147.86;100.00;-17609.17;105711;1255;72494;-46
2024/04/02 00:33:07;;;;;;;39.00;6.40;;;;;;;-147.86;100.00;-17609.17;105657;1259;60429;-47
2024/04/02 00:35:34;;;;;;;33.70;5.70;;;;;;;-147.86;100.00;-17609.17;105641;1260;60795;-47
2024/04/02 00:38:01;;;;;;;37.80;6.10;;;;;;;-147.86;100.00;-17609.17;105598;1259;73854;-48
2024/04/02 00:40:28;;;;;;;42.10;6.00;;;;;;;-147.86;100.00;-17609.17;105713;1258;64828;-46
2024/04/02 00:43:04;;;;;;;37.20;6.60;;;;;;;-147.86;100.00;-17609.17;105653;1260;72533;-47
2024/04/02 00:45:31;;;;;;;44.00;6.70;;;;;;;-147.86;100.00;-17609.17;105674;1257;60390;-45
2024/04/02 00:47:58;;;;;;;35.60;6.70;;;;;;;-147.86;100.00;-17609.17;105717;1254;60422;-46
2024/04/02 00:50:26;;;;;;;40.50;6.80;;;;;;;-147.86;100.00;-17609.17;105691;1260;73692;-46
2024/04/02 00:52:53;;;;;;;37.60;6.00;;;;;;;-147.86;100.00;-17609.17;105645;1260;65363;-45
2024/04/02 00:55:20;;;;;;;38.50;6.20;;;;;;;-147.86;100.00;-17609.17;105749;1260;72522;-48
2024/04/02 00:57:47;;;;;;;26.60;5.40;;;;;;;-147.86;100.00;-17609.17;105668;1267;60296;-45
2024/04/02 01:00:14;;;;;;;32.20;5.90;;;;;;;-147.86;100.00;-17609.17;105684;1255;60437;-46
2024/04/02 01:02:41;;;;;;;28.40;6.10;;;;;;;-147.86;100.00;-17609.17;105681;1260;73616;-45
2024/04/02 01:05:09;;;;;;;29.70;6.50;;;;;;;-147.86;100.00;-17609.17;105632;1260;65424;-47
2024/04/02 01:07:39;;;;;;;41.10;6.20;;;;;;;-147.86;100.00;-17609.17;105689;1260;72686;-46
2024/04/02 01:10:06;;;;;;;33.20;6.10;;;;;;;-147.86;100.00;-17609.17;105637;1260;62242;-48
2024/04/02 01:12:35;;;;;;;37.50;6.80;;;;;;;-147.86;100.00;-17609.17;105654;1254;60445;-46
2024/04/02 01:15:03;;;;;;;23.90;5.90;;;;;;;-147.86;100.00;-17609.17;105670;1253;72680;-45
2024/04/02 01:17:30;;;;;;;30.00;6.00;;;;;;;-147.86;100.00;-17609.17;105674;1259;64384;-47
2024/04/02 01:19:57;;;;;;;31.80;5.70;;;;;;;-147.86;100.00;-17609.17;105606;1254;72644;-47
2024/04/02 01:22:23;;;;;;;29.30;6.50;;;;;;;-147.86;100.00;-17609.17;105635;1259;60431;-45
2024/04/02 01:24:58;;;;;;;35.00;5.80;;;;;;;-147.86;100.00;-17609.17;105627;1259;60405;-46
2024/04/02 01:27:26;;;;;;;26.30;5.50;;;;;;;-147.86;100.00;-17609.17;105635;1258;73804;-45
2024/04/02 01:29:55;;;;;;;33.80;6.00;;;;;;;-147.86;100.00;-17609.17;105658;1260;65361;-45
2024/04/02 01:32:21;;;;;;;32.50;6.30;;;;;;;-147.86;100.00;-17609.17;105661;1259;72312;-45
2024/04/02 01:34:48;;;;;;;35.60;6.20;;;;;;;-147.86;100.00;-17609.17;105616;1255;60424;-45
2024/04/02 01:37:15;;;;;;;38.90;6.40;;;;;;;-147.86;100.00;-17609.17;105642;1254;60709;-47
2024/04/02 01:39:42;;;;;;;35.50;6.10;;;;;;;-147.86;100.00;-17609.17;105666;1259;73719;-46
2024/04/02 01:42:09;;;;;;;31.30;5.40;;;;;;;-147.86;100.00;-17609.17;105653;1258;65141;-46
2024/04/02 01:44:36;;;;;;;29.60;5.90;;;;;;;-147.86;100.00;-17609.17;105666;1254;73045;-45
2024/04/02 01:47:04;;;;;;;32.10;6.20;;;;;;;-147.86;100.00;-17609.17;105611;1258;60967;-45
2024/04/02 01:49:30;;;;;;;40.50;6.00;;;;;;;-147.86;100.00;-17609.17;105686;1259;60428;-45
2024/04/02 01:51:57;;;;;;;27.60;5.70;;;;;;;-147.86;100.00;-17609.17;105670;1262;73769;-46
2024/04/02 01:54:24;;;;;;;29.50;6.40;;;;;;;-147.86;100.00;-17609.17;105661;1258;65312;-47
2024/04/02 01:56:51;;;;;;;39.20;6.90;;;;;;;-147.86;100.00;-17609.17;105613;1260;72392;-45
2024/04/02 01:59:18;;;;;;;33.80;6.10;;;;;;;-147.86;100.00;-17609.17;105610;1254;61760;-46
2024/04/02 02:01:45;;;;;;;35.00;6.40;;;;;;;-147.86;100.00;-17609.17;105675;1254;60444;-46
2024/04/02 02:04:12;;;;;;;39.50;6.30;;;;;;;-147.86;100.00;-17609.17;105597;1258;73786;-45
2024/04/02 02:06:38;;;;;;;35.80;6.90;;;;;;;-147.86;100.00;-17609.17;105668;1258;65582;-46
2024/04/02 02:09:06;;;;;;;39.10;7.20;;;;;;;-147.86;100.00;-17609.17;105683;1254;72532;-46
2024/04/02 02:11:33;;;;;;;37.20;6.80;;;;;;;-147.86;100.00;-17609.17;105688;1259;60639;-45
2024/04/02 02:14:00;;;;;;;38.70;6.40;;;;;;;-147.86;100.00;-17609.17;105646;1254;60415;-47
2024/04/02 02:16:27;;;;;;;38.40;6.40;;;;;;;-147.86;100.00;-17609.17;105640;1258;74124;-45
2024/04/02 02:18:56;;;;;;;37.80;6.40;;;;;;;-147.86;100.00;-17609.17;105676;1260;65475;-46
2024/04/02 02:21:23;;;;;;;32.30;6.40;;;;;;;-147.86;100.00;-17609.17;105669;1259;72472;-45
2024/04/02 02:23:50;;;;;;;33.70;7.30;;;;;;;-147.86;100.00;-17609.17;105665;1259;61135;-45
2024/04/02 02:26:18;;;;;;;41.80;7.30;;;;;;;-147.86;100.00;-17609.17;105645;1253;61241;-46
2024/04/02 02:28:45;;;;;;;29.50;6.90;;;;;;;-147.86;100.00;-17609.17;105688;1258;74612;-45
2024/04/02 02:31:14;;;;;;;43.80;7.20;;;;;;;-147.86;100.00;-17609.17;105662;1254;64630;-46
2024/04/02 02:33:41;;;;;;;35.50;7.20;;;;;;;-147.86;100.00;-17609.17;105699;1259;71398;-46
2024/04/02 02:36:08;;;;;;;46.30;7.10;;;;;;;-147.86;100.00;-17609.17;105696;1254;61867;-46
2024/04/02 02:38:35;;;;;;;39.60;7.50;;;;;;;-147.86;100.00;-17609.17;105692;1254;61260;-46
2024/04/02 02:41:02;;;;;;;37.30;7.90;;;;;;;-147.86;100.00;-17609.17;105669;1257;74647;-46
2024/04/02 02:43:30;;;;;;;41.00;8.30;;;;;;;-147.86;100.00;-17609.17;105646;1254;65498;-47
2024/04/02 02:45:56;;;;;;;40.00;7.90;;;;;;;-147.86;100.00;-17609.17;105700;1260;72339;-47
2024/04/02 02:48:23;;;;;;;35.60;8.00;;;;;;;-147.86;100.00;-17609.17;105677;1254;61912;-46
2024/04/02 02:50:50;;;;;;;39.70;7.50;;;;;;;-147.86;100.00;-17609.17;105651;1255;61217;-46
2024/04/02 02:53:17;;;;;;;39.50;8.70;;;;;;;-147.86;100.00;-17609.17;105659;1260;74970;-46
2024/04/02 02:55:52;;;;;;;40.90;9.10;;;;;;;-147.86;100.00;-17609.17;105628;1259;65577;-47
2024/04/02 02:58:20;;;;;;;45.40;9.60;;;;;;;-147.86;100.00;-17609.17;105687;1255;72346;-47
2024/04/02 03:00:47;;;;;;;37.80;9.30;;;;;;;-147.86;100.00;-17609.17;105651;1257;61240;-46
2024/04/02 03:03:14;;;;;;;40.00;9.20;;;;;;;-147.86;100.00;-17609.17;105731;1254;61364;-46
2024/04/02 03:05:41;;;;;;;52.40;10.40;;;;;;;-147.86;100.00;-17609.17;105712;1258;75244;-46
2024/04/02 03:08:08;;;;;;;47.60;9.00;;;;;;;-147.86;100.00;-17609.17;105675;1254;65535;-46
2024/04/02 03:10:38;;;;;;;39.30;8.20;;;;;;;-147.86;100.00;-17609.17;105664;1257;72596;-46
2024/04/02 03:13:05;;;;;;;39.60;9.30;;;;;;;-147.86;100.00;-17609.17;105870;1254;61254;-46
2024/04/02 03:15:38;;;;;;;48.90;9.40;;;;;;;-147.86;100.00;-17609.17;105906;1254;61215;-45
2024/04/02 03:18:05;;;;;;;42.50;9.60;;;;;;;-147.86;100.00;-17609.17;105806;1254;73333;-48
2024/04/02 03:20:37;;;;;;;35.70;7.70;;;;;;;-147.86;100.00;-17609.17;105679;1258;65438;-50
2024/04/02 03:23:05;;;;;;;35.70;7.70;;;;;;;-147.86;100.00;-17609.17;105381;1259;72641;-44
2024/04/02 03:25:32;;;;;;;36.70;7.60;;;;;;;-147.86;100.00;-17609.17;105480;1260;61698;-47
2024/04/02 03:27:58;;;;;;;38.00;7.60;;;;;;;-147.86;100.00;-17609.17;105717;1254;61304;-47
2024/04/02 03:30:25;;;;;;;34.70;7.70;;;;;;;-147.86;100.00;-17609.17;105806;1257;75052;-48
2024/04/02 03:32:52;;;;;;;42.00;8.20;;;;;;;-147.86;100.00;-17609.17;105809;1254;64557;-51
2024/04/02 03:35:19;;;;;;;40.30;7.90;;;;;;;-147.86;100.00;-17609.17;105827;1257;71551;-47
2024/04/02 03:37:46;;;;;;;35.60;7.90;;;;;;;-147.86;100.00;-17609.17;105811;1254;61920;-47
2024/04/02 03:40:13;;;;;;;37.10;7.70;;;;;;;-147.86;100.00;-17609.17;105851;1253;61327;-46
2024/04/02 03:42:40;;;;;;;50.00;8.50;;;;;;;-147.86;100.00;-17609.17;105839;1256;74643;-46
2024/04/02 03:45:08;;;;;;;42.70;8.40;;;;;;;-147.86;100.00;-17609.17;105870;1257;66722;-46
2024/04/02 03:47:35;;;;;;;38.20;7.90;;;;;;;-147.86;100.00;-17609.17;105839;1254;72662;-45
2024/04/02 03:50:02;;;;;;;40.50;8.30;;;;;;;-147.86;100.00;-17609.17;105788;1257;61109;-46
2024/04/02 03:52:30;;;;;;;47.60;8.60;;;;;;;-147.86;100.00;-17609.17;105788;1254;61333;-45
2024/04/02 03:54:57;;;;;;;44.20;8.00;;;;;;;-147.86;100.00;-17609.17;105861;1257;74364;-45
2024/04/02 03:57:24;;;;;;;29.00;7.00;;;;;;;-147.86;100.00;-17609.17;105884;1254;64373;-46
2024/04/02 03:59:51;;;;;;;39.60;7.40;;;;;;;-147.86;100.00;-17609.17;105901;1254;72655;-45
2024/04/02 04:02:18;;;;;;;48.60;8.30;;;;;;;-147.86;100.00;-17609.17;105850;1254;61228;-45
2024/04/02 04:04:44;;;;;;;39.40;7.30;;;;;;;-147.86;100.00;-17609.17;105958;1257;61250;-46
2024/04/02 04:07:11;;;;;;;49.40;9.30;;;;;;;-147.86;100.00;-17609.17;105849;1257;74483;-47
2024/04/02 04:09:38;;;;;;;47.10;8.10;;;;;;;-147.86;100.00;-17609.17;105841;1254;65272;-45
2024/04/02 04:12:06;;;;;;;45.10;8.40;;;;;;;-147.86;100.00;-17609.17;105834;1257;72467;-47
2024/04/02 04:14:33;;;;;;;30.40;7.50;;;;;;;-147.86;100.00;-17609.17;105843;1254;61640;-45
2024/04/02 04:17:00;;;;;;;43.30;8.80;;;;;;;-147.86;100.00;-17609.17;105901;1254;61224;-47
2024/04/02 04:19:28;;;;;;;47.50;9.90;;;;;;;-147.86;100.00;-17609.17;105848;1257;74694;-46
2024/04/02 04:21:54;;;;;;;47.40;8.30;;;;;;;-147.86;100.00;-17609.17;105807;1257;65486;-46
2024/04/02 04:24:24;;;;;;;44.00;8.00;;;;;;;-147.86;100.00;-17609.17;105821;1257;72547;-47
2024/04/02 04:26:51;;;;;;;46.90;8.80;;;;;;;-147.86;100.00;-17609.17;105798;1254;61976;-47
2024/04/02 04:29:18;;;;;;;48.60;8.10;;;;;;;-147.86;100.00;-17609.17;105756;1255;61343;-45
2024/04/02 04:31:48;;;;;;;34.80;7.20;;;;;;;-147.86;100.00;-17609.17;105660;1259;74458;-46
2024/04/02 04:34:15;;;;;;;42.50;8.30;;;;;;;-147.86;100.00;-17609.17;105838;1254;65449;-45
2024/04/02 04:36:42;;;;;;;44.50;8.20;;;;;;;-147.86;100.00;-17609.17;105860;1254;72483;-45
2024/04/02 04:39:10;;;;;;;35.00;7.80;;;;;;;-147.86;100.00;-17609.17;105811;1254;61880;-46
2024/04/02 04:41:37;;;;;;;52.40;8.30;;;;;;;-147.86;100.00;-17609.17;105869;1254;61263;-46
2024/04/02 04:44:03;;;;;;;36.00;7.60;;;;;;;-147.86;100.00;-17609.17;105880;1258;74585;-46
2024/04/02 04:46:30;;;;;;;46.30;8.90;;;;;;;-147.86;100.00;-17609.17;105918;1256;65544;-46
2024/04/02 04:48:58;;;;;;;47.80;9.40;;;;;;;-147.86;100.00;-17609.17;105859;1257;72429;-48
2024/04/02 04:51:24;;;;;;;39.40;8.00;;;;;;;-147.86;100.00;-17609.17;105857;1254;61259;-46
2024/04/02 04:53:51;;;;;;;43.50;7.90;;;;;;;-147.86;100.00;-17609.17;105781;1254;61222;-46
2024/04/02 04:56:19;;;;;;;38.00;8.00;;;;;;;-147.86;100.00;-17609.17;105795;1257;74617;-46
2024/04/02 04:58:49;;;;;;;41.60;7.30;;;;;;;-147.86;100.00;-17609.17;105853;1254;65337;-46
2024/04/02 05:01:15;;;;;;;55.40;8.60;;;;;;;-147.86;100.00;-17609.17;105810;1254;71518;-46
2024/04/02 05:03:42;;;;;;;53.00;8.10;;;;;;;-147.86;100.00;-17609.17;105809;1257;61148;-48
2024/04/02 05:06:09;;;;;;;47.90;9.20;;;;;;;-147.86;100.00;-17609.17;105877;1254;61333;-46
2024/04/02 05:08:36;;;;;;;41.20;7.90;;;;;;;-147.86;100.00;-17609.17;105840;1257;74736;-44
2024/04/02 05:11:05;;;;;;;41.40;7.50;;;;;;;-147.86;100.00;-17609.17;105871;1257;64268;-46
2024/04/02 05:13:33;;;;;;;36.90;8.00;;;;;;;-147.86;100.00;-17609.17;105845;1254;72496;-45
2024/04/02 05:16:01;;;;;;;38.00;9.40;;;;;;;-147.86;100.00;-17609.17;105887;1254;61254;-46
2024/04/02 05:18:28;;;;;;;48.80;8.20;;;;;;;-147.86;100.00;-17609.17;105858;1254;61275;-45
2024/04/02 05:20:55;;;;;;;54.00;8.80;;;;;;;-147.86;100.00;-17609.17;105790;1254;74666;-45
2024/04/02 05:23:22;;;;;;;46.20;9.00;;;;;;;-147.86;100.00;-17609.17;105702;1257;65506;-45
2024/04/02 05:25:49;;;;;;;50.20;8.10;;;;;;;-147.86;100.00;-17609.17;105730;1257;72903;-46
2024/04/02 05:28:16;;;;;;;49.00;8.40;;;;;;;-147.86;100.00;-17609.17;105808;1254;61869;-45
2024/04/02 05:30:43;;;;;;;54.10;9.40;;;;;;;-147.86;100.00;-17609.17;105887;1254;61250;-46
2024/04/02 05:33:10;;;;;;;49.50;8.90;;;;;;;-147.86;100.00;-17609.17;105903;1255;74582;-45
2024/04/02 05:35:37;;;;;;;48.00;10.00;;;;;;;-147.86;100.00;-17609.17;105836;1254;65791;-46
2024/04/02 05:38:04;;;;;;;49.60;9.60;;;;;;;-147.86;100.00;-17609.17;105843;1257;72436;-45
2024/04/02 05:40:32;;;;;;;46.90;8.90;;;;;;;-147.86;100.00;-17609.17;105829;1254;62180;-45
2024/04/02 05:42:58;;;;;;;50.30;8.80;;;;;;;-147.86;100.00;-17609.17;105809;1254;61352;-46
2024/04/02 05:45:25;;;;;;;53.30;8.60;;;;;;;-147.86;100.00;-17609.17;105887;1254;73512;-48
2024/04/02 05:47:52;;;;;;;51.80;9.20;;;;;;;-147.86;100.00;-17609.17;105822;1253;66443;-45
2024/04/02 05:50:19;;;;;;;53.70;9.10;;;;;;;-147.86;100.00;-17609.17;105846;1257;72576;-44
2024/04/02 05:52:49;;;;;;;57.10;9.10;;;;;;;-147.86;100.00;-17609.17;105823;1258;61131;-46
2024/04/02 05:55:17;;;;;;;52.80;8.30;;;;;;;-147.86;100.00;-17609.17;105751;1254;61399;-45
2024/04/02 05:57:45;;;;;;;53.80;8.60;;;;;;;-147.86;100.00;-17609.17;105903;1254;76158;-47
2024/04/02 06:00:12;;;;;;;64.80;8.80;;;;;;;-147.86;100.00;-17609.17;105818;1254;65255;-45
2024/04/02 06:02:41;;;;;;;46.90;8.80;;;;;;;-147.86;100.00;-17609.17;105833;1254;72356;-46
2024/04/02 06:05:09;;;;;;;47.10;9.00;;;;;;;-147.86;100.00;-17609.17;105825;1253;61214;-46
2024/04/02 06:07:36;;;;;;;45.60;8.60;;;;;;;-147.86;100.00;-17609.17;105864;1254;61350;-46
2024/04/02 06:10:03;;;;;;;50.20;8.80;;;;;;;-147.86;100.00;-17609.17;105845;1254;74739;-45
2024/04/02 06:12:31;;;;;;;68.80;9.60;;;;;;;-147.86;100.00;-17609.17;105860;1254;66981;-45
2024/04/02 06:14:58;;;;;;;76.20;9.20;;;;;;;-147.86;100.00;-17609.17;105843;1254;74017;-45
2024/04/02 06:17:25;;;;;;;43.90;8.80;;;;;;;-147.86;100.00;-17609.17;105870;1257;61221;-45
2024/04/02 06:19:53;;;;;;;38.30;9.00;;;;;;;-147.86;100.00;-17609.17;105911;1254;61240;-45
2024/04/02 06:22:26;;;;;;;55.20;10.40;;;;;;;-147.86;100.00;-17609.17;105803;1257;74340;-46
2024/04/02 06:24:53;;;;;;;51.50;9.40;;;;;;;-147.86;100.00;-17609.17;105843;1257;65541;-46
2024/04/02 06:27:20;;;;;;;53.00;9.60;;;;;;;-147.86;100.00;-17609.17;105910;1253;74016;-45
2024/04/02 06:29:48;;;;;;;58.40;9.90;;;;;;;-147.86;100.00;-17609.17;105834;1254;63124;-47
2024/04/02 06:32:19;;;;;;;55.90;10.00;;;;;;;-147.86;100.00;-17609.17;105830;1253;61279;-45
2024/04/02 06:34:46;;;;;;;46.40;8.70;;;;;;;-147.86;100.00;-17609.17;105795;1254;75973;-47
2024/04/02 06:37:13;;;;;;;50.60;10.00;;;;;;;-147.86;100.00;-17609.17;105819;1257;65738;-46
2024/04/02 06:39:39;;;;;;;60.90;9.80;;;;;;;-147.86;100.00;-17609.17;105769;1254;72770;-46
2024/04/02 06:42:07;;;;;;;48.40;9.90;;;;;;;-147.86;100.00;-17609.17;105846;1257;61513;-45
2024/04/02 06:44:34;;;;;;;44.40;8.50;;;;;;;-147.86;100.00;-17609.17;105846;1253;61353;-47
2024/04/02 06:47:01;;;;;;;44.00;8.50;;;;;;;-147.86;100.00;-17609.17;105725;1254;75997;-47
2024/04/02 06:49:28;;;;;;;61.20;8.30;;;;;;;-147.86;100.00;-17609.17;105713;1253;65637;-50
2024/04/02 06:51:55;;;;;;;45.40;9.40;;;;;;;-147.86;100.00;-17609.17;105858;1253;72831;-53
2024/04/02 06:54:22;;;;;;;48.30;7.80;;;;;;;-147.86;100.00;-17609.17;105765;1253;63678;-49
2024/04/02 06:56:49;;;;;;;48.00;7.70;;;;;;;-147.86;100.00;-17609.17;105803;1254;61538;-45
2024/04/02 06:59:16;;;;;;;40.40;8.80;;;;;;;-147.86;100.00;-17609.17;105783;1254;75895;-45
2024/04/02 07:01:43;;;;;;;41.20;8.10;;;;;;;-147.86;100.00;-17609.17;105838;1254;66866;-46
2024/04/02 07:04:10;;;;;;;58.90;8.90;;;;;;;-147.86;100.00;-17609.17;105827;1254;74082;-46
2024/04/02 07:06:38;;;;;;;54.40;10.40;;;;;;;-147.86;100.00;-17609.17;105794;1254;61539;-46
2024/04/02 07:09:05;;;;;;;44.20;9.30;;;;;;;-147.86;100.00;-17609.17;105848;1254;61543;-47
2024/04/02 07:11:32;;;;;;;41.40;8.80;;;;;;;-147.86;100.00;-17609.17;105775;1257;75902;-46
2024/04/02 07:13:59;;;;;;;49.50;9.80;;;;;;;-147.86;100.00;-17609.17;105782;1254;65701;-46
2024/04/02 07:16:26;;;;;;;54.30;10.30;;;;;;;-147.86;100.00;-17609.17;105771;1254;74040;-46
2024/04/02 07:18:53;;;;;;;65.30;10.30;;;;;;;-147.86;100.00;-17311.94;105822;1254;61831;-48
2024/04/02 07:21:20;;;;;;;58.20;9.00;;;;;;;-147.86;100.00;-15979.03;105845;1254;61244;-47
2024/04/02 07:23:46;;;;;;;33.20;7.90;;;;;;;-147.86;100.00;-12522.00;105922;1253;76089;-47
2024/04/02 07:26:13;;;;;;;53.50;8.60;;;;;;;-147.86;100.00;-9754.27;105832;1257;67011;-45
2024/04/02 07:28:40;;;;;;;37.70;7.30;;;;;;;-147.86;100.00;-7083.37;105796;1254;72665;-45
2024/04/02 07:31:07;;;;;;;65.10;9.20;;;;;;;-147.86;100.00;-5301.68;105806;1253;61211;-46
2024/04/02 07:33:34;;;;;;;50.50;9.70;;;;;;;-147.86;100.00;-2974.54;105777;1254;61496;-47
2024/04/02 07:36:04;;;;;;;45.40;8.80;;;;;;;-147.86;99.39;1585.62;105847;1254;74928;-50
2024/04/02 07:38:31;;;;;;;47.30;8.80;;;;;;;-147.86;97.98;8235.83;105674;1259;66074;-48
2024/04/02 07:40:59;;;;;;;78.10;10.90;;;;;;;-147.86;96.48;13405.85;105794;1257;74214;-47
2024/04/02 07:43:26;;;;;;;48.50;8.40;;;;;;;-147.86;94.07;21073.69;105829;1254;61577;-47
2024/04/02 07:45:53;;;;;;;53.50;9.00;;;;;;;-147.86;91.83;30454.32;105828;1253;61266;-46
2024/04/02 07:48:20;;;;;;;47.90;7.90;;;;;;;-147.86;92.64;35404.78;105775;1257;74931;-46
2024/04/02 07:50:49;;;;;;;51.30;8.10;;;;;;;-147.86;92.10;37557.52;105823;1257;66705;-46
2024/04/02 07:53:16;;;;;;;48.40;7.00;;;;;;;-147.86;90.66;40924.04;105859;1257;74067;-46
2024/04/02 07:55:43;;;;;;;44.80;7.20;;;;;;;-147.86;89.23;42909.82;105809;1253;61419;-47
2024/04/02 07:58:10;;;;;;;43.00;6.80;;;;;;;-147.86;87.76;44240.12;105819;1253;61648;-47
2024/04/02 08:00:38;;;;;;;52.20;7.10;;;;;;;-147.86;85.73;45353.43;105837;1257;75838;-46
2024/04/02 08:03:05;;;;;;;48.60;6.90;;;;;;;-147.86;82.79;46414.14;105833;1255;67088;-47
2024/04/02 08:05:32;;;;;;;38.50;6.60;;;;;;;-147.86;84.04;47021.23;105838;1253;72766;-49
2024/04/02 08:07:59;;;;;;;44.70;7.60;;;;;;;-147.86;82.87;47303.84;105759;1257;61565;-48
2024/04/02 08:10:26;;;;;;;49.50;7.00;;;;;;;-147.86;80.49;47595.48;105836;1257;62215;-47
2024/04/02 08:12:53;;;;;;;34.60;6.50;;;;;;;-147.86;77.47;47920.48;105825;1255;75924;-47
2024/04/02 08:15:20;;;;;;;47.20;7.40;;;;;;;-147.86;77.19;48188.64;105799;1256;66682;-50
2024/04/02 08:17:47;;;;;;;49.40;7.10;;;;;;;-147.86;75.78;48398.01;105824;1256;73879;-49
2024/04/02 08:20:14;;;;;;;46.80;7.40;;;;;;;-147.86;73.68;48604.26;105810;1253;61157;-48
2024/04/02 08:22:42;;;;;;;40.00;7.20;;;;;;;-147.86;73.67;48768.55;105808;1254;61521;-48
2024/04/02 08:25:10;;;;;;;50.80;7.20;;;;;;;-147.86;73.89;48906.20;105789;1257;75910;-49
2024/04/02 08:27:37;;;;;;;44.30;7.40;;;;;;;-147.86;74.36;49051.30;105795;1257;66040;-49
2024/04/02 08:30:08;;;;;;;54.20;7.10;;;;;;;-147.86;71.12;49148.55;105769;1254;73010;-54
2024/04/02 08:32:36;;;;;;;42.30;7.30;;;;;;;-147.86;67.32;49259.93;105731;1257;61702;-50
2024/04/02 08:35:04;;;;;;;38.70;7.10;;;;;;;-147.86;65.80;49341.50;105574;1254;61626;-48
2024/04/02 08:37:32;;;;;;;47.10;7.40;;;;;;;-147.86;63.92;49380.71;105677;1253;75806;-48
2024/04/02 08:39:59;;;;;;;82.70;8.20;;;;;;;-147.86;63.80;49412.09;105783;1257;65928;-50
2024/04/02 08:42:27;;;;;;;43.40;6.90;;;;;;;-147.86;60.95;49467.00;105807;1256;72763;-53
2024/04/02 08:44:56;;;;;;;46.10;6.70;;;;;;;-147.86;56.17;49451.31;105685;1254;61273;-47
2024/04/02 08:47:26;;;;;;;46.50;6.80;;;;;;;-147.86;56.44;49430.13;105780;1254;61477;-51
2024/04/02 08:49:53;;;;;;;46.50;7.20;;;;;;;-147.86;56.73;49436.80;105887;1254;76006;-49
2024/04/02 08:52:21;;;;;;;47.50;6.80;;;;;;;-147.86;55.47;49443.08;105711;1254;65976;-49
2024/04/02 08:54:48;;;;;;;43.70;6.40;;;;;;;-147.86;53.13;49439.94;105800;1254;72264;-51
2024/04/02 08:57:16;;;;;;;42.50;6.20;;;;;;;-147.86;53.91;49407.00;105779;1257;61937;-47
2024/04/02 08:59:43;;;;;;;38.30;7.10;;;;;;;-147.86;51.63;49386.60;105778;1254;61768;-46
2024/04/02 09:02:10;;;;;;;52.00;7.30;;;;;;;-147.86;51.82;49401.51;105725;1253;75813;-47
2024/04/02 09:04:37;;;;;;;37.00;6.10;;;;;;;-147.86;50.82;49398.76;105785;1257;65877;-50
2024/04/02 09:07:04;;;;;;;49.20;6.40;;;;;;;-147.86;50.56;49395.23;105757;1254;73512;-49
2024/04/02 09:09:31;;;;;;;50.00;6.60;;;;;;;-147.86;49.72;49420.33;105827;1257;61444;-52
2024/04/02 09:11:58;;;;;;;44.70;7.00;;;;;;;-147.86;46.99;49422.29;105745;1257;61324;-46
2024/04/02 09:14:25;;;;;;;43.60;6.20;;;;;;;-147.86;46.40;49395.62;105635;1255;76052;-49
2024/04/02 09:16:52;;;;;;;50.20;6.60;;;;;;;-147.86;46.86;49421.51;105847;1257;66507;-50
2024/04/02 09:19:19;;;;;;;31.30;6.30;;;;;;;-147.86;45.30;49414.45;105838;1254;74058;-51
2024/04/02 09:21:46;;;;;;;46.40;7.40;;;;;;;-147.86;44.71;49378.76;105777;1257;61214;-48
2024/04/02 09:24:13;;;;;;;42.20;6.30;;;;;;;-147.86;44.27;49371.30;105827;1253;61635;-48
2024/04/02 09:26:40;;;;;;;41.40;6.50;;;;;;;-147.86;44.44;49365.03;105655;1254;75935;-50
2024/04/02 09:29:07;;;;;;;40.50;7.30;;;;;;;-147.86;44.13;49372.88;105682;1259;66863;-47
2024/04/02 09:31:34;;;;;;;51.40;7.70;;;;;;;-147.86;44.25;49351.70;105765;1254;72745;-48
2024/04/02 09:34:05;;;;;;;43.50;6.60;;;;;;;-147.86;44.05;49339.93;105824;1257;61241;-50
2024/04/02 09:36:48;;;;;;;48.50;7.20;;;;;;;-147.86;45.13;49349.34;105809;1258;61195;-47
2024/04/02 09:39:15;;;;;;;51.90;6.90;;;;;;;-147.86;44.10;49368.16;105755;1257;76049;-53
2024/04/02 09:41:43;;;;;;;49.10;7.60;;;;;;;-147.86;43.80;49350.91;105833;1257;65831;-51
2024/04/02 09:44:28;;;;;;;46.80;8.10;;;;;;;-147.86;43.86;49363.46;105765;1254;72310;-53
2024/04/02 09:46:57;;;;;;;44.80;7.70;;;;;;;-147.86;44.11;49390.91;105708;1255;61285;-47
2024/04/02 09:49:24;;;;;;;54.60;7.50;;;;;;;-147.86;42.00;49371.30;105671;1254;61384;-49
2024/04/02 09:51:53;;;;;;;38.60;7.40;;;;;;;-147.86;41.84;49313.65;105818;1254;73440;-45
2024/04/02 09:54:21;;;;;;;68.90;8.20;;;;;;;-147.86;41.99;49308.95;105622;1254;64956;-52
2024/04/02 09:56:48;;;;;;;59.20;8.30;;;;;;;-147.86;42.09;49306.60;105714;1257;73274;-50
2024/04/02 09:59:14;;;;;;;48.80;7.70;;;;;;;-147.86;42.52;49300.32;105599;1254;61768;-51
2024/04/02 10:01:41;;;;;;;36.10;7.80;;;;;;;-147.86;41.87;49326.99;105764;1253;61425;-50
2024/04/02 10:04:10;;;;;;;32.00;6.60;;;;;;;-147.86;40.27;49311.70;105583;1255;74708;-48
2024/04/02 10:06:37;;;;;;;47.70;7.80;;;;;;;-147.86;40.13;49298.75;105672;1259;65882;-50
2024/04/02 10:09:12;;;;;;;50.00;7.10;;;;;;;-147.86;40.20;49311.30;105670;1254;71754;-48
2024/04/02 10:11:40;;;;;;;34.10;5.80;;;;;;;-147.86;39.75;49269.34;105621;1258;61531;-49
2024/04/02 10:14:12;;;;;;;75.50;8.80;;;;;;;-147.86;39.02;49242.28;105690;1254;61481;-51
2024/04/02 10:16:43;;;;;;;42.80;6.20;;;;;;;-147.86;38.54;49203.46;105781;1254;73633;-52
2024/04/02 10:19:16;;;;;;;41.50;7.10;;;;;;;-147.86;37.67;49154.43;105829;1253;66039;-48
2024/04/02 10:21:43;;;;;;;60.90;8.00;;;;;;;-147.86;37.80;49178.75;105752;1254;71386;-48
2024/04/02 10:24:11;;;;;;;80.20;8.10;;;;;;;-147.86;37.49;49169.34;105667;1259;61557;-48
2024/04/02 10:26:39;;;;;;;51.90;7.80;;;;;;;-147.86;37.75;49172.08;105774;1254;61192;-50
2024/04/02 10:29:06;;;;;;;47.60;7.20;;;;;;;-147.86;37.20;49186.20;105599;1254;337780;-52
2024/04/02 10:33:16;;;;;;;;;;;;;;;-147.86;36.60;48673.40;102499;1293;603393;-50
2024/04/02 10:35:43;;;;;;;58.00;8.40;;;;;;;-147.86;36.66;49135.21;105106;1268;60544;-49
2024/04/02 10:38:10;;;;;;;38.30;7.50;;;;;;;-147.86;36.48;49114.82;105183;1266;61524;-47
2024/04/02 10:40:38;;;;;;;49.30;6.90;;;;;;;-147.86;36.66;49134.43;105085;1265;74461;-51
2024/04/02 10:43:05;;;;;;;55.10;6.60;;;;;;;-147.86;35.54;49085.80;105114;1268;66061;-48
2024/04/02 10:45:32;;;;;;;42.10;7.00;;;;;;;-147.86;35.20;49039.92;104919;1262;244632;-49
2024/04/02 10:48:00;;;;;;;40.20;6.60;;;;;;;-147.86;35.47;49024.24;105244;1265;61613;-47
2024/04/02 10:50:29;;;;;;;55.60;6.80;;;;;;;-147.86;35.27;48985.02;105238;1263;60559;-47
2024/04/02 10:52:56;;;;;;;52.60;7.70;;;;;;;-147.86;35.37;48968.95;105210;1263;73205;-51
2024/04/02 10:55:24;;;;;;;51.00;8.20;;;;;;;-147.86;35.30;48960.71;105471;1262;67263;-50